createdAt,value
2022-07-28T00:00:16.048Z,15.20
2022-07-28T00:02:43.542Z,14.60
2022-07-28T00:05:11.710Z,17.75
2022-07-28T00:07:39.017Z,13.73
2022-07-28T00:10:08.002Z,14.40
2022-07-28T00:12:35.635Z,17.35
2022-07-28T00:15:04.217Z,14.48
2022-07-28T00:17:32.726Z,15.57
2022-07-28T00:20:00.588Z,15.35
2022-07-28T00:22:28.311Z,19.27
2022-07-28T00:24:56.098Z,15.67
2022-07-28T00:27:24.904Z,15.60
2022-07-28T00:29:52.535Z,15.65
2022-07-28T00:32:20.615Z,18.40
2022-07-28T00:34:48.643Z,16.95
2022-07-28T00:37:16.157Z,19.05
2022-07-28T00:39:44.223Z,18.55
2022-07-28T00:42:12.329Z,17.05
2022-07-28T00:44:42.141Z,17.88
2022-07-28T00:47:10.334Z,20.80
2022-07-28T00:49:39.213Z,16.80
2022-07-28T00:52:09.850Z,20.50
2022-07-28T00:54:37.333Z,17.40
2022-07-28T00:57:05.244Z,18.98
2022-07-28T00:59:33.771Z,20.50
2022-07-28T01:02:02.445Z,18.65
2022-07-28T01:04:31.048Z,18.80
2022-07-28T01:07:40.829Z,18.92
2022-07-28T01:10:35.758Z,19.52
2022-07-28T01:13:47.038Z,20.50
2022-07-28T01:16:14.697Z,20.35
2022-07-28T01:19:34.326Z,23.15
2022-07-28T01:22:06.182Z,19.67
2022-07-28T01:25:24.504Z,21.02
2022-07-28T01:28:59.260Z,18.83
2022-07-28T01:31:38.295Z,20.35
2022-07-28T01:34:19.109Z,19.40
2022-07-28T01:36:55.368Z,19.88
2022-07-28T01:39:30.158Z,16.77
2022-07-28T01:41:59.811Z,19.70
2022-07-28T01:44:29.131Z,19.80
2022-07-28T01:47:02.198Z,21.25
2022-07-28T01:49:30.864Z,19.05
2022-07-28T01:52:00.902Z,17.95
2022-07-28T01:54:31.263Z,20.02
2022-07-28T01:57:03.890Z,20.70
2022-07-28T01:59:32.297Z,19.52
2022-07-28T02:02:01.254Z,19.42
2022-07-28T02:04:29.937Z,18.83
2022-07-28T02:06:58.843Z,16.83
2022-07-28T02:09:27.781Z,16.75
2022-07-28T02:11:56.714Z,17.80
2022-07-28T02:14:27.898Z,16.38
2022-07-28T02:17:01.089Z,18.38
2022-07-28T02:19:30.337Z,19.50
2022-07-28T02:21:57.977Z,15.52
2022-07-28T02:24:27.130Z,15.52
2022-07-28T02:27:48.392Z,18.55
2022-07-28T02:30:25.732Z,17.10
2022-07-28T02:33:02.894Z,15.30
2022-07-28T02:36:01.959Z,13.73
2022-07-28T02:38:44.583Z,15.57
2022-07-28T02:41:24.462Z,13.93
2022-07-28T02:44:00.239Z,14.38
2022-07-28T02:46:39.085Z,15.32
2022-07-28T02:49:15.678Z,16.58
2022-07-28T02:51:45.585Z,11.95
2022-07-28T02:54:14.849Z,13.80
2022-07-28T02:56:53.492Z,11.63
2022-07-28T02:59:23.637Z,11.13
2022-07-28T03:01:52.423Z,14.98
2022-07-28T03:04:39.945Z,12.95
2022-07-28T03:07:08.439Z,12.13
2022-07-28T03:09:45.729Z,13.02
2022-07-28T03:12:14.346Z,12.88
2022-07-28T03:14:42.395Z,12.50
2022-07-28T03:17:12.961Z,18.63
2022-07-28T03:19:40.767Z,15.25
2022-07-28T03:22:10.264Z,13.48
2022-07-28T03:24:51.097Z,19.45
2022-07-28T03:27:28.331Z,18.75
2022-07-28T03:30:11.069Z,15.13
2022-07-28T03:32:51.684Z,13.70
2022-07-28T03:35:19.540Z,11.73
2022-07-28T03:38:17.741Z,13.10
2022-07-28T03:40:47.194Z,12.90
2022-07-28T03:43:20.268Z,10.93
2022-07-28T03:45:48.293Z,12.48
2022-07-28T03:48:16.454Z,12.18
2022-07-28T03:50:45.392Z,13.15
2022-07-28T03:53:27.279Z,12.88
2022-07-28T03:55:56.778Z,14.32
2022-07-28T03:58:30.987Z,13.68
2022-07-28T04:01:01.336Z,16.80
2022-07-28T04:03:42.615Z,15.05
2022-07-28T04:06:18.139Z,18.65
2022-07-28T04:08:45.708Z,16.42
2022-07-28T04:11:13.158Z,15.73
2022-07-28T04:13:40.529Z,16.08
2022-07-28T04:16:08.078Z,15.77
2022-07-28T04:18:35.893Z,15.73
2022-07-28T04:21:04.330Z,18.65
2022-07-28T04:23:32.410Z,16.25
2022-07-28T04:25:59.770Z,15.23
2022-07-28T04:28:27.222Z,16.50
2022-07-28T04:30:54.624Z,14.73
2022-07-28T04:33:22.162Z,16.23
2022-07-28T04:35:52.822Z,19.40
2022-07-28T04:38:21.007Z,18.15
2022-07-28T04:40:49.668Z,20.27
2022-07-28T04:43:17.086Z,17.75
2022-07-28T04:45:54.165Z,20.15
2022-07-28T04:48:23.892Z,18.38
2022-07-28T04:50:53.168Z,18.80
2022-07-28T04:53:25.544Z,22.58
2022-07-28T04:55:55.255Z,19.80
2022-07-28T04:58:24.546Z,17.50
2022-07-28T05:00:55.243Z,18.73
2022-07-28T05:03:24.171Z,18.38
2022-07-28T05:05:53.991Z,17.63
2022-07-28T05:08:25.774Z,21.88
2022-07-28T05:10:56.482Z,17.70
2022-07-28T05:13:33.346Z,17.98
2022-07-28T05:16:04.844Z,19.60
2022-07-28T05:18:34.350Z,15.57
2022-07-28T05:21:04.990Z,15.55
2022-07-28T05:23:32.636Z,15.57
2022-07-28T05:26:00.120Z,15.70
2022-07-28T05:28:27.562Z,16.02
2022-07-28T05:30:55.215Z,13.30
2022-07-28T05:33:23.693Z,11.30
2022-07-28T05:35:59.625Z,13.75
2022-07-28T05:38:28.607Z,9.38
2022-07-28T05:40:56.108Z,9.52
2022-07-28T05:43:23.722Z,10.98
2022-07-28T05:45:51.327Z,12.75
2022-07-28T05:48:21.108Z,10.48
2022-07-28T05:50:50.594Z,13.05
2022-07-28T05:53:19.594Z,10.23
2022-07-28T05:55:57.779Z,6.20
2022-07-28T05:58:30.673Z,5.63
2022-07-28T06:01:03.168Z,7.78
2022-07-28T06:03:35.890Z,5.88
2022-07-28T06:06:15.035Z,7.65
2022-07-28T06:08:48.334Z,5.70
2022-07-28T06:11:22.074Z,5.78
2022-07-28T06:13:52.710Z,10.07
2022-07-28T06:16:22.758Z,8.80
2022-07-28T06:18:51.478Z,8.25
2022-07-28T06:21:19.039Z,6.38
2022-07-28T06:23:46.758Z,9.18
2022-07-28T06:26:14.354Z,6.05
2022-07-28T06:28:42.070Z,5.53
2022-07-28T06:31:15.746Z,7.88
2022-07-28T06:33:43.465Z,5.35
2022-07-28T06:36:11.113Z,6.15
2022-07-28T06:38:38.929Z,5.78
2022-07-28T06:41:06.338Z,5.55
2022-07-28T06:43:36.754Z,7.78
2022-07-28T06:46:07.404Z,6.97
2022-07-28T06:48:37.845Z,6.38
2022-07-28T06:51:06.065Z,8.10
2022-07-28T06:53:34.687Z,9.75
2022-07-28T06:56:06.005Z,6.07
2022-07-28T06:58:33.536Z,6.72
2022-07-28T07:01:02.834Z,5.15
2022-07-28T07:03:33.978Z,6.82
2022-07-28T07:06:01.475Z,5.57
2022-07-28T07:08:31.913Z,6.00
2022-07-28T07:11:00.398Z,4.95
2022-07-28T07:13:29.059Z,5.53
2022-07-28T07:15:56.543Z,5.72
2022-07-28T07:18:24.094Z,6.85
2022-07-28T07:20:51.512Z,4.65
2022-07-28T07:23:19.007Z,6.97
2022-07-28T07:25:46.455Z,9.85
2022-07-28T07:28:13.951Z,6.40
2022-07-28T07:30:41.539Z,6.30
2022-07-28T07:33:10.314Z,7.88
2022-07-28T07:35:39.521Z,6.97
2022-07-28T07:38:06.959Z,7.93
2022-07-28T07:40:34.609Z,15.13
2022-07-28T07:43:02.018Z,8.07
2022-07-28T07:45:29.505Z,7.50
2022-07-28T07:48:01.737Z,9.85
2022-07-28T07:50:32.159Z,8.20
2022-07-28T07:53:00.946Z,5.50
2022-07-28T07:55:29.308Z,4.88
2022-07-28T07:58:06.275Z,3.75
2022-07-28T08:00:34.146Z,6.30
2022-07-28T08:03:01.813Z,6.93
2022-07-28T08:05:35.352Z,6.80
2022-07-28T08:08:05.646Z,6.38
2022-07-28T08:10:35.642Z,8.05
2022-07-28T08:13:07.631Z,6.70
2022-07-28T08:15:35.416Z,5.57
2022-07-28T08:18:03.114Z,8.98
2022-07-28T08:20:30.616Z,7.32
2022-07-28T08:22:59.938Z,5.70
2022-07-28T08:25:28.498Z,6.35
2022-07-28T08:27:56.181Z,8.90
2022-07-28T08:30:27.417Z,8.00
2022-07-28T08:32:57.536Z,8.43
2022-07-28T08:35:35.065Z,4.53
2022-07-28T08:38:07.030Z,6.97
2022-07-28T08:40:38.648Z,7.18
2022-07-28T08:43:29.076Z,10.50
2022-07-28T08:46:01.054Z,7.40
2022-07-28T08:48:35.044Z,7.35
2022-07-28T08:51:08.350Z,7.00
2022-07-28T08:53:41.074Z,5.60
2022-07-28T08:56:19.027Z,8.70
2022-07-28T08:58:46.555Z,5.03
2022-07-28T09:01:13.962Z,7.78
2022-07-28T09:03:42.817Z,6.68
2022-07-28T09:06:10.570Z,6.00
2022-07-28T09:08:38.156Z,9.25
2022-07-28T09:11:08.676Z,10.18
2022-07-28T09:13:36.653Z,11.65
2022-07-28T09:16:06.875Z,7.13
2022-07-28T09:18:34.789Z,7.93
2022-07-28T09:21:02.278Z,5.05
2022-07-28T09:23:48.662Z,8.20
2022-07-28T09:26:21.068Z,10.27
2022-07-28T09:28:53.340Z,6.93
2022-07-28T09:31:25.075Z,6.22
2022-07-28T09:34:05.366Z,6.25
2022-07-28T09:36:41.918Z,5.63
2022-07-28T09:39:11.885Z,9.20
2022-07-28T09:41:57.252Z,5.25
2022-07-28T09:46:57.947Z,7.38
2022-07-28T09:49:43.138Z,6.00
2022-07-28T09:52:10.866Z,7.35
2022-07-28T09:54:41.362Z,6.13
2022-07-28T09:57:12.191Z,7.85
2022-07-28T09:59:53.599Z,6.35
2022-07-28T10:02:31.505Z,9.43
2022-07-28T10:05:00.508Z,6.95
2022-07-28T10:07:30.103Z,6.90
2022-07-28T10:10:11.301Z,7.55
2022-07-28T10:12:39.516Z,8.05
2022-07-28T10:15:45.458Z,5.50
2022-07-28T10:18:18.470Z,9.48
2022-07-28T10:20:46.472Z,6.72
2022-07-28T10:23:15.866Z,6.55
2022-07-28T10:25:45.115Z,6.05
2022-07-28T10:28:16.898Z,13.93
2022-07-28T10:30:46.445Z,7.72
2022-07-28T10:33:17.130Z,10.40
2022-07-28T10:35:55.458Z,10.85
2022-07-28T10:38:35.860Z,10.93
2022-07-28T10:41:08.530Z,5.45
2022-07-28T10:43:36.940Z,7.57
2022-07-28T10:46:16.059Z,8.25
2022-07-28T10:48:44.969Z,7.70
2022-07-28T10:51:13.866Z,10.57
2022-07-28T10:53:59.906Z,7.15
2022-07-28T10:56:34.143Z,6.13
2022-07-28T10:59:44.393Z,7.28
2022-07-28T11:02:57.725Z,6.18
2022-07-28T11:05:41.067Z,5.95
2022-07-28T11:08:18.286Z,5.90
2022-07-28T11:10:58.919Z,9.52
2022-07-28T11:13:40.809Z,7.32
2022-07-28T11:16:15.647Z,11.38
2022-07-28T11:19:36.506Z,8.32
2022-07-28T11:22:24.500Z,8.05
2022-07-28T11:25:18.445Z,8.00
2022-07-28T11:27:50.577Z,6.82
2022-07-28T11:30:35.828Z,6.78
2022-07-28T11:33:07.056Z,13.65
2022-07-28T11:35:40.846Z,7.93
2022-07-28T11:38:15.623Z,6.40
2022-07-28T11:40:56.377Z,7.97
2022-07-28T11:43:37.857Z,7.75
2022-07-28T11:46:09.687Z,12.15
2022-07-28T11:48:44.853Z,6.55
2022-07-28T11:51:14.363Z,7.55
2022-07-28T11:53:50.849Z,6.22
2022-07-28T11:56:36.092Z,5.93
2022-07-28T11:59:11.985Z,6.30
2022-07-28T12:01:53.347Z,6.00
2022-07-28T12:04:27.533Z,6.47
2022-07-28T12:06:55.920Z,8.30
2022-07-28T12:09:42.038Z,8.05
2022-07-28T12:12:10.241Z,6.28
2022-07-28T12:14:42.390Z,9.30
2022-07-28T12:17:10.557Z,9.95
2022-07-28T12:19:40.028Z,9.68
2022-07-28T12:22:15.551Z,6.97
2022-07-28T12:24:44.910Z,6.15
2022-07-28T12:27:15.106Z,8.23
2022-07-28T12:29:47.814Z,7.45
2022-07-28T12:32:20.109Z,6.22
2022-07-28T12:34:49.008Z,10.23
2022-07-28T12:37:17.418Z,14.13
2022-07-28T12:39:51.901Z,10.35
2022-07-28T12:44:51.200Z,8.90
2022-07-28T12:47:33.731Z,6.55
2022-07-28T12:50:20.039Z,7.43
2022-07-28T12:53:12.355Z,8.18
2022-07-28T12:55:45.347Z,6.65
2022-07-28T12:58:28.837Z,8.07
2022-07-28T13:00:56.756Z,7.72
2022-07-28T13:03:27.882Z,8.10
2022-07-28T13:06:03.422Z,8.88
2022-07-28T13:08:44.534Z,7.63
2022-07-28T13:11:43.393Z,6.10
2022-07-28T13:14:14.944Z,7.32
2022-07-28T13:16:42.772Z,5.50
2022-07-28T13:19:21.723Z,11.50
2022-07-28T13:22:01.576Z,6.72
2022-07-28T13:24:31.785Z,8.20
2022-07-28T13:27:01.963Z,6.72
2022-07-28T13:29:35.829Z,6.88
2022-07-28T13:32:03.689Z,5.68
2022-07-28T13:34:31.216Z,6.25
2022-07-28T13:36:58.763Z,8.07
2022-07-28T13:39:26.458Z,9.52
2022-07-28T13:41:57.357Z,6.95
2022-07-28T13:44:29.187Z,8.50
2022-07-28T13:46:59.920Z,5.93
2022-07-28T13:49:33.154Z,8.88
2022-07-28T13:52:02.332Z,7.07
2022-07-28T13:54:32.324Z,8.32
2022-07-28T13:57:15.363Z,7.05
2022-07-28T13:59:44.304Z,6.95
2022-07-28T14:02:15.132Z,6.05
2022-07-28T14:04:45.999Z,8.48
2022-07-28T14:09:50.758Z,6.40
2022-07-28T14:12:19.193Z,8.32
2022-07-28T14:14:48.076Z,5.82
2022-07-28T14:20:12.524Z,7.20
2022-07-28T14:22:40.163Z,7.03
2022-07-28T14:25:08.334Z,7.97
2022-07-28T14:27:35.695Z,10.05
2022-07-28T14:30:05.438Z,5.40
2022-07-28T14:32:33.159Z,6.43
2022-07-28T14:35:02.383Z,6.53
2022-07-28T14:37:41.133Z,9.02
2022-07-28T14:40:20.577Z,6.18
2022-07-28T14:42:48.015Z,7.75
2022-07-28T14:45:15.714Z,8.05
2022-07-28T14:47:44.953Z,8.80
2022-07-28T14:50:14.390Z,8.52
2022-07-28T14:52:44.754Z,8.00
2022-07-28T14:55:13.604Z,6.32
2022-07-28T14:57:50.348Z,9.75
2022-07-28T15:00:25.778Z,9.15
2022-07-28T15:02:53.525Z,6.43
2022-07-28T15:05:22.783Z,7.30
2022-07-28T15:07:52.374Z,7.03
2022-07-28T15:10:21.352Z,8.35
2022-07-28T15:12:50.116Z,5.60
2022-07-28T15:15:18.367Z,6.22
2022-07-28T15:17:46.056Z,5.78
2022-07-28T15:20:13.568Z,5.90
2022-07-28T15:22:40.871Z,5.50
2022-07-28T15:25:12.221Z,6.82
2022-07-28T15:27:45.413Z,7.22
2022-07-28T15:30:14.179Z,4.63
2022-07-28T15:32:54.599Z,5.78
2022-07-28T15:35:25.827Z,4.50
2022-07-28T15:37:54.185Z,4.93
2022-07-28T15:40:22.273Z,9.80
2022-07-28T15:42:49.719Z,6.05
2022-07-28T15:45:17.638Z,6.57
2022-07-28T15:47:45.165Z,7.68
2022-07-28T15:50:12.645Z,5.85
2022-07-28T15:52:40.290Z,8.98
2022-07-28T15:55:08.654Z,7.28
2022-07-28T15:57:37.489Z,9.15
2022-07-28T16:00:07.095Z,6.45
2022-07-28T16:02:35.035Z,8.05
2022-07-28T16:05:02.435Z,8.98
2022-07-28T16:07:31.247Z,6.32
2022-07-28T16:09:59.982Z,7.95
2022-07-28T16:12:27.538Z,7.03
2022-07-28T16:14:55.559Z,7.40
2022-07-28T16:17:24.513Z,8.68
2022-07-28T16:19:53.865Z,6.82
2022-07-28T16:22:21.662Z,10.23
2022-07-28T16:24:50.794Z,8.32
2022-07-28T16:27:18.618Z,7.63
2022-07-28T16:29:46.363Z,10.15
2022-07-28T16:32:13.952Z,6.97
2022-07-28T16:34:44.716Z,10.13
2022-07-28T16:37:16.078Z,8.18
2022-07-28T16:39:47.770Z,11.57
2022-07-28T16:42:15.170Z,9.35
2022-07-28T16:44:43.726Z,7.15
2022-07-28T16:47:12.328Z,7.60
2022-07-28T16:49:45.281Z,7.30
2022-07-28T16:52:14.991Z,10.52
2022-07-28T16:54:42.978Z,7.88
2022-07-28T16:57:10.332Z,10.73
2022-07-28T16:59:48.138Z,8.95
2022-07-28T17:02:17.785Z,8.35
2022-07-28T17:04:46.762Z,11.10
2022-07-28T17:07:14.230Z,7.80
2022-07-28T17:09:41.874Z,9.23
2022-07-28T17:12:09.694Z,8.05
2022-07-28T17:14:37.883Z,7.47
2022-07-28T17:17:05.468Z,8.73
2022-07-28T17:19:33.365Z,10.82
2022-07-28T17:22:01.233Z,8.90
2022-07-28T17:24:28.777Z,12.00
2022-07-28T17:29:44.292Z,9.85
2022-07-28T17:32:11.745Z,11.15
2022-07-28T17:34:39.235Z,7.28
2022-07-28T17:37:06.794Z,8.63
2022-07-28T17:39:34.267Z,8.60
2022-07-28T17:42:01.629Z,7.43
2022-07-28T17:44:29.416Z,10.57
2022-07-28T17:47:03.542Z,7.72
2022-07-28T17:49:31.226Z,7.60
2022-07-28T17:51:58.721Z,8.50
2022-07-28T17:54:27.450Z,6.57
2022-07-28T17:56:57.503Z,8.95
2022-07-28T17:59:26.622Z,6.82
2022-07-28T18:02:04.720Z,9.30
2022-07-28T18:04:32.227Z,9.90
2022-07-28T18:06:59.563Z,6.45
2022-07-28T18:09:27.034Z,9.27
2022-07-28T18:11:56.940Z,7.38
2022-07-28T18:14:31.005Z,13.50
2022-07-28T18:16:59.330Z,6.93
2022-07-28T18:19:28.713Z,11.02
2022-07-28T18:21:56.907Z,13.00
2022-07-28T18:24:26.310Z,9.82
2022-07-28T18:26:54.966Z,7.72
2022-07-28T18:29:22.698Z,9.02
2022-07-28T18:31:52.441Z,10.65
2022-07-28T18:34:23.638Z,10.35
2022-07-28T18:36:56.831Z,9.38
2022-07-28T18:39:24.164Z,13.48
2022-07-28T18:41:56.128Z,12.35
2022-07-28T18:44:23.503Z,13.30
2022-07-28T18:46:53.966Z,11.02
2022-07-28T18:49:21.757Z,9.02
2022-07-28T18:51:49.863Z,9.65
2022-07-28T18:54:27.628Z,10.82
2022-07-28T18:56:59.161Z,9.40
2022-07-28T18:59:26.985Z,13.55
2022-07-28T19:01:55.218Z,13.55
2022-07-28T19:04:22.789Z,14.55
2022-07-28T19:06:50.769Z,14.82
2022-07-28T19:09:18.242Z,10.52
2022-07-28T19:11:46.668Z,15.85
2022-07-28T19:14:21.728Z,12.48
2022-07-28T19:16:49.491Z,15.43
2022-07-28T19:19:17.136Z,13.05
2022-07-28T19:21:48.465Z,9.38
2022-07-28T19:24:18.064Z,6.72
2022-07-28T19:26:50.129Z,7.38
2022-07-28T19:29:18.087Z,9.35
2022-07-28T19:31:45.511Z,12.23
2022-07-28T19:34:13.435Z,11.32
2022-07-28T19:36:41.596Z,11.48
2022-07-28T19:39:10.472Z,10.65
2022-07-28T19:41:38.932Z,11.40
2022-07-28T19:44:06.689Z,6.82
2022-07-28T19:46:34.333Z,7.93
2022-07-28T19:49:03.187Z,6.15
2022-07-28T19:51:30.784Z,6.95
2022-07-28T19:54:00.330Z,12.23
2022-07-28T19:56:31.551Z,12.35
2022-07-28T19:59:00.176Z,14.57
2022-07-28T20:01:27.896Z,17.60
2022-07-28T20:04:04.089Z,11.50
2022-07-28T20:06:33.405Z,10.77
2022-07-28T20:09:02.970Z,15.38
2022-07-28T20:11:32.722Z,13.57
2022-07-28T20:14:01.796Z,10.40
2022-07-28T20:16:29.576Z,9.77
2022-07-28T20:18:57.477Z,10.90
2022-07-28T20:21:26.466Z,14.05
2022-07-28T20:23:57.747Z,11.77
2022-07-28T20:26:26.716Z,8.90
2022-07-28T20:28:58.437Z,9.27
2022-07-28T20:31:26.399Z,12.40
2022-07-28T20:33:57.186Z,12.85
2022-07-28T20:36:29.401Z,10.70
2022-07-28T20:38:57.341Z,13.75
2022-07-28T20:41:24.989Z,9.73
2022-07-28T20:44:26.121Z,8.13
2022-07-28T20:46:42.894Z,6.65
2022-07-28T20:49:12.673Z,7.38
2022-07-28T20:51:40.511Z,8.13
2022-07-28T20:54:20.956Z,8.38
2022-07-28T20:56:48.661Z,6.90
2022-07-28T20:59:16.204Z,6.63
2022-07-28T21:01:50.149Z,8.93
2022-07-28T21:04:19.407Z,7.85
2022-07-28T21:06:55.370Z,7.57
2022-07-28T21:09:31.754Z,6.70
2022-07-28T21:12:01.458Z,10.05
2022-07-28T21:14:28.901Z,5.90
2022-07-28T21:16:56.552Z,5.38
2022-07-28T21:19:24.599Z,7.25
2022-07-28T21:21:52.262Z,8.75
2022-07-28T21:24:19.777Z,5.38
2022-07-28T21:26:49.499Z,5.95
2022-07-28T21:32:04.680Z,7.20
2022-07-28T21:34:34.781Z,6.05
2022-07-28T21:37:05.179Z,7.07
2022-07-28T21:39:34.089Z,6.70
2022-07-28T21:42:03.622Z,6.18
2022-07-28T21:44:33.284Z,6.05
2022-07-28T21:47:00.943Z,4.70
2022-07-28T21:49:30.500Z,4.90
2022-07-28T21:51:58.301Z,5.93
2022-07-28T21:54:25.796Z,9.25
2022-07-28T21:56:53.317Z,6.50
2022-07-28T21:59:20.809Z,6.53
2022-07-28T22:01:48.641Z,3.80
2022-07-28T22:04:16.717Z,5.00
2022-07-28T22:06:46.546Z,5.30
2022-07-28T22:09:15.202Z,7.80
2022-07-28T22:11:42.990Z,5.93
2022-07-28T22:14:10.617Z,5.53
2022-07-28T22:16:38.069Z,6.78
2022-07-28T22:19:05.576Z,6.80
2022-07-28T22:21:32.917Z,8.05
2022-07-28T22:24:00.573Z,6.38
2022-07-28T22:26:28.018Z,9.02
2022-07-28T22:28:55.325Z,4.70
2022-07-28T22:31:22.683Z,5.55
2022-07-28T22:33:50.180Z,4.95
2022-07-28T22:36:17.729Z,5.85
2022-07-28T22:38:45.013Z,4.35
2022-07-28T22:41:12.401Z,5.03
2022-07-28T22:43:39.826Z,9.27
2022-07-28T22:46:10.183Z,5.10
2022-07-28T22:48:37.852Z,5.43
2022-07-28T22:51:16.434Z,5.03
2022-07-28T22:53:44.044Z,3.60
2022-07-28T22:56:11.869Z,3.90
2022-07-28T22:58:40.181Z,4.68
2022-07-28T23:01:07.988Z,5.65
2022-07-28T23:03:36.714Z,4.80
2022-07-28T23:06:05.688Z,3.88
2022-07-28T23:08:33.200Z,4.13
2022-07-28T23:11:00.731Z,5.18
2022-07-28T23:13:28.065Z,5.50
2022-07-28T23:15:55.307Z,5.03
2022-07-28T23:18:22.600Z,5.88
2022-07-28T23:20:50.045Z,4.55
2022-07-28T23:23:18.605Z,3.97
2022-07-28T23:25:46.277Z,5.18
2022-07-28T23:28:13.887Z,4.47
2022-07-28T23:30:41.383Z,3.78
2022-07-28T23:33:08.967Z,6.53
2022-07-28T23:35:43.386Z,5.18
2022-07-28T23:38:11.941Z,4.38
2022-07-28T23:40:39.579Z,8.05
2022-07-28T23:43:07.114Z,6.18
2022-07-28T23:45:34.885Z,4.95
2022-07-28T23:48:02.291Z,4.18
2022-07-28T23:50:29.796Z,4.80
2022-07-28T23:53:00.503Z,5.13
2022-07-28T23:55:28.032Z,4.20
2022-07-28T23:57:55.452Z,4.15
